Time;durP1;ratioP1;P1;durP2;ratioP2;P2;SDS_P1;SDS_P2;PMS_P1;PMS_P2;Temp;Humidity;BMP_temperature;BMP_pressure;BME280_temperature;BME280_humidity;BME280_pressure;Samples;Min_cycle;Max_cycle;Signal;HPM_P1;HPM_P2
2022/09/07 00:02:11;;;;;;;5.57;2.00;;;19.10;87.80;;;;;;5060175;28;20543;-58
2022/09/07 00:04:38;;;;;;;2.77;2.20;;;19.00;87.80;;;;;;5060129;28;20459;-57
2022/09/07 00:07:05;;;;;;;10.37;4.83;;;19.00;87.70;;;;;;5059795;28;20967;-58
2022/09/07 00:09:31;;;;;;;3.43;2.73;;;19.00;87.50;;;;;;5059660;28;20908;-58
2022/09/07 00:11:58;;;;;;;3.63;2.00;;;19.00;87.80;;;;;;5060026;28;20470;-58
2022/09/07 00:14:26;;;;;;;2.27;2.07;;;19.00;88.00;;;;;;5060397;28;20450;-55
2022/09/07 00:16:53;;;;;;;4.27;2.60;;;18.90;87.90;;;;;;5060119;28;20494;-57
2022/09/07 00:19:21;;;;;;;4.10;2.10;;;18.90;88.40;;;;;;5059651;28;20443;-58
2022/09/07 00:21:48;;;;;;;4.03;2.43;;;18.90;88.20;;;;;;5060296;28;20453;-58
2022/09/07 00:24:16;;;;;;;3.70;2.10;;;18.80;87.90;;;;;;5059770;28;20451;-55
2022/09/07 00:26:43;;;;;;;4.80;2.40;;;18.80;89.30;;;;;;5060123;28;20443;-58
2022/09/07 00:29:10;;;;;;;2.40;2.20;;;18.70;89.00;;;;;;5059269;28;20477;-58
2022/09/07 00:31:38;;;;;;;3.40;1.93;;;18.60;89.10;;;;;;5059899;28;20447;-58
2022/09/07 00:34:05;;;;;;;2.30;1.50;;;18.60;89.30;;;;;;5059816;28;20527;-58
2022/09/07 00:36:32;;;;;;;5.00;2.03;;;18.50;89.30;;;;;;5059346;28;20490;-59
2022/09/07 00:38:59;;;;;;;6.80;3.10;;;18.50;90.10;;;;;;5060029;28;20453;-56
2022/09/07 00:41:26;;;;;;;3.83;2.30;;;18.50;89.90;;;;;;5059923;28;20438;-56
2022/09/07 00:43:54;;;;;;;2.70;1.80;;;18.50;89.70;;;;;;5059931;28;20495;-57
2022/09/07 00:46:23;;;;;;;3.63;1.80;;;18.50;89.90;;;;;;5059326;28;20455;-55
2022/09/07 00:48:57;;;;;;;3.47;2.20;;;18.40;90.10;;;;;;5059328;28;20443;-57
2022/09/07 00:51:28;;;;;;;3.30;2.20;;;18.40;90.20;;;;;;5058944;28;20471;-56
2022/09/07 00:53:59;;;;;;;1.97;1.73;;;18.30;90.40;;;;;;5058545;28;21053;-56
2022/09/07 00:56:32;;;;;;;2.87;2.27;;;18.30;90.60;;;;;;5059240;28;20467;-58
2022/09/07 00:58:59;;;;;;;2.70;2.20;;;18.20;90.80;;;;;;5059534;28;20455;-58
2022/09/07 01:01:26;;;;;;;5.47;2.80;;;18.20;90.80;;;;;;5059389;28;20816;-58
2022/09/07 01:03:58;;;;;;;3.20;1.70;;;18.10;91.10;;;;;;5059374;28;20538;-57
2022/09/07 01:06:28;;;;;;;3.77;2.60;;;18.10;91.10;;;;;;5058899;28;20880;-58
2022/09/07 01:08:59;;;;;;;8.60;2.10;;;18.00;91.30;;;;;;5059324;28;20474;-58
2022/09/07 01:11:26;;;;;;;4.83;2.13;;;18.00;91.50;;;;;;5059358;28;20448;-54
2022/09/07 01:13:54;;;;;;;2.20;1.70;;;18.00;91.80;;;;;;5059337;28;20473;-58
2022/09/07 01:16:35;;;;;;;2.90;2.10;;;17.90;92.30;;;;;;5059256;28;20550;-57
2022/09/07 01:19:21;;;;;;;1.80;1.40;;;17.90;92.10;;;;;;5059171;28;20463;-58
2022/09/07 01:22:04;;;;;;;3.87;2.13;;;17.90;92.40;;;;;;5059316;28;20751;-58
2022/09/07 01:24:46;;;;;;;4.97;1.67;;;17.80;92.70;;;;;;5059147;28;20473;-56
2022/09/07 01:27:51;;;;;;;3.43;2.20;;;17.80;93.10;;;;;;5059681;28;20431;-57
2022/09/07 01:30:19;;;;;;;1.70;1.40;;;17.80;93.20;;;;;;5059002;28;20862;-55
2022/09/07 01:33:02;;;;;;;3.60;2.00;;;17.70;93.90;;;;;;5059808;28;20453;-58
2022/09/07 01:35:39;;;;;;;5.50;1.73;;;17.70;93.80;;;;;;5059121;28;20477;-59
2022/09/07 01:38:14;;;;;;;2.90;1.60;;;17.60;94.10;;;;;;5059456;28;20954;-58
2022/09/07 01:40:49;;;;;;;2.73;1.50;;;17.60;94.50;;;;;;5059201;28;20560;-57
2022/09/07 01:43:25;;;;;;;4.00;1.83;;;17.60;94.60;;;;;;5058901;28;20453;-55
2022/09/07 01:45:53;;;;;;;4.97;1.80;;;17.60;95.00;;;;;;5058666;28;20474;-58
2022/09/07 01:48:21;;;;;;;2.37;1.83;;;17.60;95.50;;;;;;5059350;28;20784;-57
2022/09/07 01:50:54;;;;;;;2.70;1.80;;;17.50;95.60;;;;;;5058874;28;20928;-55
2022/09/07 01:53:25;;;;;;;2.87;1.90;;;17.50;96.00;;;;;;5059218;28;20463;-57
2022/09/07 01:55:56;;;;;;;2.80;1.93;;;17.50;96.20;;;;;;5058819;28;20435;-59
2022/09/07 01:58:29;;;;;;;2.70;1.90;;;17.50;96.60;;;;;;5058492;28;20494;-55
2022/09/07 02:01:02;;;;;;;2.40;1.70;;;17.50;96.90;;;;;;5058620;28;20454;-59
2022/09/07 02:03:34;;;;;;;4.10;1.90;;;17.50;97.20;;;;;;5058324;28;20467;-59
2022/09/07 02:06:05;;;;;;;4.17;1.90;;;17.40;97.50;;;;;;5058470;28;20423;-57
2022/09/07 02:08:34;;;;;;;2.60;1.37;;;17.40;97.50;;;;;;5058619;28;20474;-58
2022/09/07 02:11:08;;;;;;;4.50;2.00;;;17.40;97.90;;;;;;5058821;28;20455;-57
2022/09/07 02:13:40;;;;;;;2.90;1.77;;;17.40;98.10;;;;;;5058915;28;20475;-56
2022/09/07 02:16:12;;;;;;;3.03;1.83;;;17.40;98.50;;;;;;5058392;28;20462;-56
2022/09/07 02:18:44;;;;;;;3.13;2.13;;;17.30;98.70;;;;;;5058591;28;20478;-55
2022/09/07 02:21:13;;;;;;;4.83;2.63;;;17.30;99.10;;;;;;5058605;28;20431;-57
2022/09/07 02:23:43;;;;;;;2.80;1.90;;;17.30;99.40;;;;;;5058543;28;20443;-56
2022/09/07 02:26:14;;;;;;;1.87;1.57;;;17.20;99.80;;;;;;5057140;28;20467;-50
2022/09/07 02:28:43;;;;;;;2.10;1.70;;;17.20;99.90;;;;;;5059564;28;20423;-53
2022/09/07 02:31:10;;;;;;;4.73;2.30;;;17.20;99.90;;;;;;5056435;28;20550;-53
2022/09/07 02:33:37;;;;;;;2.37;1.80;;;17.20;99.90;;;;;;5055763;28;20462;-53
2022/09/07 02:36:05;;;;;;;2.70;1.90;;;17.10;99.90;;;;;;5056202;28;20554;-54
2022/09/07 02:38:33;;;;;;;2.93;1.80;;;17.10;99.90;;;;;;5055888;28;20518;-52
2022/09/07 02:41:02;;;;;;;3.60;1.97;;;17.10;99.90;;;;;;5055959;28;20459;-52
2022/09/07 02:43:30;;;;;;;2.50;1.70;;;17.10;99.90;;;;;;5055548;28;20444;-54
2022/09/07 02:46:15;;;;;;;6.73;2.00;;;17.00;99.90;;;;;;5055554;28;21073;-54
2022/09/07 02:48:50;;;;;;;3.43;1.80;;;17.00;99.90;;;;;;5055341;28;20471;-52
2022/09/07 02:51:28;;;;;;;2.77;1.53;;;17.00;99.90;;;;;;5055160;28;20939;-52
2022/09/07 02:54:11;;;;;;;3.77;2.37;;;17.00;99.90;;;;;;5055576;28;20794;-47
2022/09/07 02:56:51;;;;;;;1.73;1.50;;;16.90;99.90;;;;;;5059419;28;20431;-56
2022/09/07 02:59:31;;;;;;;3.53;1.87;;;16.90;99.90;;;;;;5056131;28;20821;-51
2022/09/07 03:02:04;;;;;;;2.17;1.50;;;16.80;99.90;;;;;;5055658;28;20431;-55
2022/09/07 03:04:40;;;;;;;2.30;2.10;;;16.80;99.90;;;;;;5055635;28;20782;-56
2022/09/07 03:07:12;;;;;;;3.27;2.00;;;16.80;99.90;;;;;;5055404;28;20526;-55
2022/09/07 03:09:45;;;;;;;2.83;1.87;;;16.70;99.90;;;;;;5055626;28;20513;-56
2022/09/07 03:12:13;;;;;;;2.60;1.57;;;16.80;99.90;;;;;;5055670;28;20457;-53
2022/09/07 03:14:41;;;;;;;3.90;2.00;;;16.70;99.90;;;;;;5055225;28;20989;-52
2022/09/07 03:17:10;;;;;;;2.50;2.20;;;16.70;99.90;;;;;;5057730;28;20431;-54
2022/09/07 03:19:37;;;;;;;3.57;1.77;;;16.70;99.90;;;;;;5059635;28;20904;-53
2022/09/07 03:22:04;;;;;;;1.93;1.70;;;16.70;99.90;;;;;;5059941;28;20443;-51
2022/09/07 03:24:32;;;;;;;3.90;1.93;;;16.60;99.90;;;;;;5062543;28;20447;-57
2022/09/07 03:26:59;;;;;;;2.83;1.67;;;16.60;99.90;;;;;;5060603;28;20467;-52
2022/09/07 03:29:26;;;;;;;3.00;1.60;;;16.60;99.90;;;;;;5059030;28;20440;-51
2022/09/07 03:31:53;;;;;;;2.40;1.83;;;16.50;99.90;;;;;;5060246;28;20489;-54
2022/09/07 03:34:21;;;;;;;2.50;1.83;;;16.50;99.90;;;;;;5059948;28;20463;-48
2022/09/07 03:36:48;;;;;;;3.63;1.77;;;16.50;99.90;;;;;;5059016;28;20454;-52
2022/09/07 03:39:15;;;;;;;4.00;2.00;;;16.50;99.90;;;;;;5059168;28;20463;-53
2022/09/07 03:41:45;;;;;;;4.50;2.43;;;16.50;99.90;;;;;;5059328;28;20799;-52
2022/09/07 03:44:12;;;;;;;1.60;1.40;;;16.50;99.90;;;;;;5059002;28;20463;-52
2022/09/07 03:46:39;;;;;;;3.20;2.20;;;16.50;99.90;;;;;;5062567;28;20865;-49
2022/09/07 03:49:05;;;;;;;2.80;2.00;;;16.50;99.90;;;;;;5060509;28;20467;-56
2022/09/07 03:51:36;;;;;;;2.13;1.87;;;16.50;99.90;;;;;;5061716;28;20518;-52
2022/09/07 03:54:03;;;;;;;4.53;2.10;;;16.50;99.90;;;;;;5060530;28;20467;-50
2022/09/07 03:56:30;;;;;;;2.80;1.93;;;16.50;99.90;;;;;;5059344;28;20443;-51
2022/09/07 03:58:57;;;;;;;6.13;1.93;;;16.50;99.90;;;;;;5059038;28;20849;-53
2022/09/07 04:01:25;;;;;;;3.00;2.30;;;16.50;99.90;;;;;;5059326;28;20811;-52
2022/09/07 04:03:56;;;;;;;3.43;2.00;;;16.40;99.90;;;;;;5059098;28;20474;-54
2022/09/07 04:06:23;;;;;;;9.33;2.03;;;16.40;99.90;;;;;;5059024;28;20455;-54
2022/09/07 04:08:51;;;;;;;6.30;2.37;;;16.40;99.90;;;;;;5059372;28;20471;-52
2022/09/07 04:11:18;;;;;;;4.80;2.17;;;16.40;99.90;;;;;;5059238;28;20483;-51
2022/09/07 04:13:46;;;;;;;3.80;1.90;;;16.40;99.90;;;;;;5059853;28;20827;-48
2022/09/07 04:16:15;;;;;;;2.80;1.83;;;16.40;99.90;;;;;;5058961;28;20499;-49
2022/09/07 04:18:42;;;;;;;8.07;2.57;;;16.40;99.90;;;;;;5059005;28;20487;-51
2022/09/07 04:21:10;;;;;;;3.17;1.73;;;16.30;99.90;;;;;;5059309;28;20543;-49
2022/09/07 04:23:38;;;;;;;3.37;1.70;;;16.30;99.90;;;;;;5059267;28;20431;-50
2022/09/07 04:26:07;;;;;;;2.13;1.73;;;16.20;99.90;;;;;;5059298;28;20450;-53
2022/09/07 04:28:33;;;;;;;4.30;2.73;;;16.20;99.90;;;;;;5057931;28;20924;-55
2022/09/07 04:31:01;;;;;;;4.50;2.40;;;16.20;99.90;;;;;;5058619;28;20474;-52
2022/09/07 04:33:30;;;;;;;3.67;1.83;;;16.20;99.90;;;;;;5058207;28;20467;-53
2022/09/07 04:35:58;;;;;;;3.40;2.17;;;16.20;99.90;;;;;;5058295;28;20443;-53
2022/09/07 04:38:25;;;;;;;4.70;3.03;;;16.20;99.90;;;;;;5058335;28;20497;-52
2022/09/07 04:41:01;;;;;;;4.73;2.37;;;16.20;99.90;;;;;;5058394;28;20512;-55
2022/09/07 04:43:30;;;;;;;2.77;2.00;;;16.20;99.90;;;;;;5058613;28;20473;-54
2022/09/07 04:45:57;;;;;;;3.37;2.20;;;16.20;99.90;;;;;;5058073;28;20538;-54
2022/09/07 04:48:24;;;;;;;3.17;2.70;;;16.20;99.90;;;;;;5057879;28;20443;-55
2022/09/07 04:50:51;;;;;;;3.00;1.70;;;16.10;99.90;;;;;;5058253;28;20474;-54
2022/09/07 04:53:18;;;;;;;2.53;1.97;;;16.10;99.90;;;;;;5058193;28;20448;-56
2022/09/07 04:55:45;;;;;;;3.60;2.00;;;16.10;99.90;;;;;;5058110;28;20998;-51
2022/09/07 04:58:12;;;;;;;3.27;2.10;;;16.10;99.90;;;;;;5058504;28;20552;-55
2022/09/07 05:00:40;;;;;;;7.73;2.50;;;16.10;99.90;;;;;;5058035;28;20482;-53
2022/09/07 05:03:07;;;;;;;4.73;1.93;;;16.00;99.90;;;;;;5056217;28;20439;-57
2022/09/07 05:05:37;;;;;;;3.60;2.33;;;16.00;99.90;;;;;;5056991;28;20455;-54
2022/09/07 05:08:04;;;;;;;4.90;2.43;;;16.00;99.90;;;;;;5056498;28;20423;-53
2022/09/07 05:10:31;;;;;;;3.90;2.33;;;16.10;99.90;;;;;;5056276;28;20541;-54
2022/09/07 05:12:58;;;;;;;3.83;2.30;;;16.10;99.90;;;;;;5055873;28;20453;-52
2022/09/07 05:15:28;;;;;;;3.10;2.80;;;16.10;99.90;;;;;;5063290;28;20461;-47
2022/09/07 05:17:57;;;;;;;7.23;2.33;;;16.10;99.90;;;;;;5059109;28;20491;-51
2022/09/07 05:20:24;;;;;;;4.17;2.27;;;16.10;99.90;;;;;;5056012;28;21107;-54
2022/09/07 05:22:58;;;;;;;12.27;4.73;;;16.10;99.90;;;;;;5055985;28;20553;-53
2022/09/07 05:25:25;;;;;;;10.00;3.20;;;16.10;99.90;;;;;;5056086;28;20509;-51
2022/09/07 05:27:53;;;;;;;5.27;1.93;;;16.10;99.90;;;;;;5057278;28;20463;-52
2022/09/07 05:30:19;;;;;;;5.80;3.13;;;16.10;99.90;;;;;;5058413;28;20732;-50
2022/09/07 05:32:46;;;;;;;5.20;2.17;;;16.10;99.90;;;;;;5055945;28;20443;-54
2022/09/07 05:35:17;;;;;;;5.50;2.53;;;16.10;99.90;;;;;;5055639;28;20466;-55
2022/09/07 05:37:44;;;;;;;3.00;1.83;;;16.20;99.90;;;;;;5055990;28;20526;-53
2022/09/07 05:40:11;;;;;;;3.67;2.23;;;16.20;99.90;;;;;;5054678;28;20565;-54
2022/09/07 05:42:38;;;;;;;4.13;2.03;;;16.30;99.90;;;;;;5055639;28;20447;-47
2022/09/07 05:45:06;;;;;;;3.10;2.30;;;16.30;99.90;;;;;;5055461;28;20549;-48
2022/09/07 05:47:33;;;;;;;2.77;2.47;;;16.30;99.90;;;;;;5055805;28;20447;-47
2022/09/07 05:50:00;;;;;;;6.13;2.37;;;16.30;99.90;;;;;;5056259;28;20546;-42
2022/09/07 05:52:29;;;;;;;3.50;2.43;;;16.40;99.90;;;;;;5056297;28;20466;-44
2022/09/07 05:54:55;;;;;;;22.13;2.77;;;16.40;99.90;;;;;;5060717;28;20538;-45
2022/09/07 05:57:24;;;;;;;3.97;2.40;;;16.40;99.90;;;;;;5055389;28;20867;-49
2022/09/07 05:59:51;;;;;;;14.23;3.60;;;16.40;99.90;;;;;;5055300;28;20787;-46
2022/09/07 06:02:18;;;;;;;6.70;2.50;;;16.50;99.90;;;;;;5055177;28;20470;-46
2022/09/07 06:04:46;;;;;;;2.70;2.03;;;16.50;99.90;;;;;;5055731;28;20459;-46
2022/09/07 06:07:14;;;;;;;3.13;2.43;;;16.60;99.90;;;;;;5056027;28;20499;-45
2022/09/07 06:09:42;;;;;;;3.93;2.90;;;16.60;99.90;;;;;;5055964;28;20913;-49
2022/09/07 06:12:09;;;;;;;11.03;3.57;;;16.70;99.90;;;;;;5056673;28;20449;-45
2022/09/07 06:14:35;;;;;;;7.83;3.50;;;16.70;99.90;;;;;;5056560;28;20533;-47
2022/09/07 06:17:02;;;;;;;4.90;2.87;;;16.80;99.90;;;;;;5056514;28;20461;-52
2022/09/07 06:19:29;;;;;;;5.43;2.33;;;16.80;99.90;;;;;;5056187;28;20478;-47
2022/09/07 06:21:56;;;;;;;4.23;3.20;;;16.90;99.90;;;;;;5056523;28;20462;-48
2022/09/07 06:24:23;;;;;;;2.80;2.40;;;17.00;99.90;;;;;;5057519;28;20463;-48
2022/09/07 06:26:51;;;;;;;8.27;3.20;;;17.10;99.90;;;;;;5056855;28;20467;-46
2022/09/07 06:29:18;;;;;;;4.20;2.60;;;17.10;99.90;;;;;;5056378;28;20463;-47
2022/09/07 06:31:45;;;;;;;4.10;2.90;;;17.30;99.90;;;;;;5056402;28;20432;-47
2022/09/07 06:34:12;;;;;;;3.10;2.70;;;17.40;99.90;;;;;;5056672;28;20586;-46
2022/09/07 06:36:38;;;;;;;3.60;2.87;;;17.50;99.90;;;;;;5059694;28;20469;-53
2022/09/07 06:39:05;;;;;;;5.50;3.40;;;17.60;99.90;;;;;;5056785;28;20583;-49
2022/09/07 06:41:33;;;;;;;5.13;2.60;;;17.70;99.90;;;;;;5056074;28;20431;-46
2022/09/07 06:44:02;;;;;;;4.63;2.80;;;17.90;99.90;;;;;;5056487;28;20481;-46
2022/09/07 06:46:29;;;;;;;5.03;2.90;;;18.00;99.90;;;;;;5056403;28;20538;-47
2022/09/07 06:48:56;;;;;;;5.33;3.53;;;18.10;99.90;;;;;;5056678;28;20439;-45
2022/09/07 06:51:26;;;;;;;4.17;2.70;;;18.20;99.90;;;;;;5056075;28;20457;-43
2022/09/07 06:53:55;;;;;;;5.93;2.43;;;18.30;99.90;;;;;;5056693;28;20451;-45
2022/09/07 06:56:22;;;;;;;4.10;2.87;;;18.40;99.90;;;;;;5056610;28;20435;-43
2022/09/07 06:58:53;;;;;;;5.33;2.80;;;18.50;99.90;;;;;;5056566;28;20483;-43
2022/09/07 07:01:22;;;;;;;4.30;2.47;;;18.60;99.90;;;;;;5056501;28;20435;-46
2022/09/07 07:03:50;;;;;;;4.33;2.30;;;18.60;99.90;;;;;;5056377;28;20451;-47
2022/09/07 07:06:17;;;;;;;3.93;3.10;;;18.70;99.90;;;;;;5060173;28;20495;-49
2022/09/07 07:08:45;;;;;;;4.07;3.17;;;18.80;99.90;;;;;;5056876;28;20450;-52
2022/09/07 07:11:13;;;;;;;6.60;3.03;;;18.90;99.90;;;;;;5055557;28;20463;-46
2022/09/07 07:13:42;;;;;;;5.20;3.20;;;18.90;99.90;;;;;;5055671;28;20768;-47
2022/09/07 07:16:11;;;;;;;5.83;3.47;;;18.90;99.90;;;;;;5055471;28;20550;-49
2022/09/07 07:18:40;;;;;;;5.33;4.07;;;19.00;99.90;;;;;;5055403;28;20990;-48
2022/09/07 07:21:08;;;;;;;7.93;4.63;;;19.00;99.90;;;;;;5055339;28;20447;-47
2022/09/07 07:23:36;;;;;;;6.10;2.83;;;19.00;99.90;;;;;;5055783;28;20474;-45
2022/09/07 07:26:03;;;;;;;5.47;2.80;;;19.00;99.90;;;;;;5055152;28;20459;-41
2022/09/07 07:28:31;;;;;;;4.57;3.17;;;19.10;99.90;;;;;;5055027;28;20505;-44
2022/09/07 07:30:59;;;;;;;8.67;5.03;;;19.10;99.90;;;;;;5055240;28;20443;-49
2022/09/07 07:33:30;;;;;;;5.80;3.37;;;19.20;99.90;;;;;;5055703;28;20771;-45
2022/09/07 07:36:11;;;;;;;4.70;3.80;;;19.20;99.90;;;;;;5055573;28;20519;-48
2022/09/07 07:38:38;;;;;;;4.37;3.50;;;19.30;99.90;;;;;;5055460;28;20781;-45
2022/09/07 07:41:05;;;;;;;6.77;3.17;;;19.40;99.90;;;;;;5055250;28;20777;-45
2022/09/07 07:43:32;;;;;;;4.97;3.77;;;19.50;99.90;;;;;;5055276;28;20854;-45
2022/09/07 07:45:59;;;;;;;9.10;4.03;;;19.70;99.90;;;;;;5055139;28;20439;-47
2022/09/07 07:48:26;;;;;;;5.30;3.57;;;19.80;99.90;;;;;;5054912;28;20830;-46
2022/09/07 07:50:58;;;;;;;8.00;3.60;;;20.00;99.90;;;;;;5054680;28;20455;-45
2022/09/07 07:53:27;;;;;;;5.10;3.23;;;20.10;99.90;;;;;;5056526;28;20755;-51
2022/09/07 07:55:54;;;;;;;5.30;4.03;;;20.30;99.90;;;;;;5057122;28;20824;-51
2022/09/07 07:58:21;;;;;;;5.93;3.87;;;20.50;99.90;;;;;;5054609;28;20444;-47
2022/09/07 08:00:48;;;;;;;3.57;2.70;;;20.60;99.90;;;;;;5054146;28;20989;-45
2022/09/07 08:03:15;;;;;;;4.40;3.87;;;20.80;99.90;;;;;;5056251;28;20447;-48
2022/09/07 08:05:42;;;;;;;5.73;3.37;;;21.00;99.90;;;;;;5057902;28;20478;-46
2022/09/07 08:08:10;;;;;;;6.70;4.20;;;21.20;99.90;;;;;;5058227;28;20847;-49
2022/09/07 08:10:38;;;;;;;4.67;3.97;;;21.70;99.90;;;;;;5057388;28;20471;-49
2022/09/07 08:13:05;;;;;;;5.63;3.67;;;23.00;99.90;;;;;;5057673;28;20478;-49
2022/09/07 08:15:32;;;;;;;4.00;3.50;;;24.50;99.10;;;;;;5057187;28;21028;-50
2022/09/07 08:17:58;;;;;;;6.40;3.90;;;26.30;92.40;;;;;;5057203;28;20966;-46
2022/09/07 08:20:25;;;;;;;7.20;4.67;;;27.80;84.30;;;;;;5058056;28;20486;-47
2022/09/07 08:22:52;;;;;;;4.97;4.33;;;29.10;74.80;;;;;;5059730;28;20451;-46
2022/09/07 08:25:19;;;;;;;5.13;3.70;;;30.40;67.00;;;;;;5057296;28;20475;-45
2022/09/07 08:27:47;;;;;;;4.23;3.77;;;31.30;62.60;;;;;;5057184;28;20455;-43
2022/09/07 08:30:14;;;;;;;7.60;3.93;;;32.10;58.00;;;;;;5057008;28;20467;-47
2022/09/07 08:32:40;;;;;;;6.13;3.90;;;32.60;56.50;;;;;;5057153;28;20443;-45
2022/09/07 08:35:09;;;;;;;4.63;3.70;;;33.00;54.80;;;;;;5057172;28;20795;-47
2022/09/07 08:37:36;;;;;;;6.43;4.07;;;33.40;53.40;;;;;;5056996;28;20451;-45
2022/09/07 08:40:03;;;;;;;4.53;3.73;;;33.80;52.40;;;;;;5056863;28;20491;-47
2022/09/07 08:42:44;;;;;;;4.80;3.73;;;34.20;51.40;;;;;;5056878;28;20467;-44
2022/09/07 08:45:17;;;;;;;4.10;3.70;;;34.60;50.20;;;;;;5056902;28;20490;-45
2022/09/07 08:47:49;;;;;;;4.43;4.03;;;34.80;49.40;;;;;;5056832;28;20865;-44
2022/09/07 08:50:21;;;;;;;4.70;3.90;;;34.80;49.00;;;;;;5059133;28;20795;-57
2022/09/07 08:52:54;;;;;;;6.47;4.30;;;34.80;49.10;;;;;;5057726;28;20714;-46
2022/09/07 08:55:26;;;;;;;7.50;5.23;;;34.60;48.70;;;;;;5056706;28;20471;-46
2022/09/07 08:58:00;;;;;;;5.30;4.67;;;34.30;49.00;;;;;;5056676;28;20431;-45
2022/09/07 09:00:30;;;;;;;8.30;4.47;;;34.10;49.40;;;;;;5056419;28;20943;-44
2022/09/07 09:02:57;;;;;;;5.90;4.07;;;34.20;49.30;;;;;;5056518;28;20508;-49
2022/09/07 09:05:31;;;;;;;6.80;4.23;;;34.00;49.80;;;;;;5056227;28;20484;-47
2022/09/07 09:08:13;;;;;;;6.23;3.97;;;34.00;49.60;;;;;;5056292;28;21074;-49
2022/09/07 09:10:49;;;;;;;6.47;4.80;;;34.00;49.60;;;;;;5056081;28;20477;-45
2022/09/07 09:13:19;;;;;;;5.57;4.00;;;34.00;49.70;;;;;;5059482;28;20438;-47
2022/09/07 09:15:54;;;;;;;5.97;4.30;;;34.30;49.50;;;;;;5055696;28;20807;-45
2022/09/07 09:18:34;;;;;;;7.13;4.90;;;34.30;49.30;;;;;;5056274;28;20454;-44
2022/09/07 09:21:02;;;;;;;3.87;3.47;;;34.20;49.30;;;;;;5056202;28;20509;-46
2022/09/07 09:23:33;;;;;;;7.67;4.50;;;34.00;49.50;;;;;;5056118;28;20444;-46
2022/09/07 09:26:07;;;;;;;5.10;4.60;;;34.00;50.00;;;;;;5055858;28;20498;-47
2022/09/07 09:28:33;;;;;;;6.97;4.67;;;33.90;49.90;;;;;;5056105;28;20463;-47
2022/09/07 09:31:01;;;;;;;6.23;4.43;;;33.50;50.30;;;;;;5055779;28;20459;-50
2022/09/07 09:33:29;;;;;;;10.80;4.60;;;33.30;50.80;;;;;;5055891;28;20443;-46
2022/09/07 09:35:58;;;;;;;4.20;3.80;;;33.20;51.00;;;;;;5055917;28;20467;-45
2022/09/07 09:38:31;;;;;;;5.37;4.87;;;33.30;51.20;;;;;;5055651;28;20439;-48
2022/09/07 09:41:02;;;;;;;5.10;4.60;;;33.40;51.50;;;;;;5057003;28;20487;-48
2022/09/07 09:43:38;;;;;;;5.60;4.83;;;33.40;51.30;;;;;;5057157;28;20451;-46
2022/09/07 09:46:18;;;;;;;7.33;4.53;;;33.50;51.00;;;;;;5055741;28;20542;-45
2022/09/07 09:48:54;;;;;;;8.20;4.70;;;33.80;50.90;;;;;;5055636;28;20758;-44
2022/09/07 09:51:22;;;;;;;5.50;4.80;;;34.00;50.60;;;;;;5055738;28;20836;-44
2022/09/07 09:53:59;;;;;;;6.37;5.47;;;34.00;50.50;;;;;;5055673;28;20443;-44
2022/09/07 09:56:40;;;;;;;7.37;6.77;;;34.10;50.80;;;;;;5055863;28;20470;-43
2022/09/07 09:59:21;;;;;;;9.23;5.13;;;33.80;51.00;;;;;;5055878;28;20733;-44
2022/09/07 10:01:50;;;;;;;5.90;5.33;;;33.70;51.00;;;;;;5055801;28;20471;-45
2022/09/07 10:04:29;;;;;;;5.43;4.93;;;33.40;51.90;;;;;;5055549;28;20470;-44
2022/09/07 10:07:00;;;;;;;5.97;4.77;;;33.10;52.40;;;;;;5055975;28;20474;-45
2022/09/07 10:09:33;;;;;;;6.00;4.87;;;33.20;52.50;;;;;;5056111;28;20454;-51
2022/09/07 10:12:02;;;;;;;5.30;4.80;;;33.10;52.30;;;;;;5056945;28;20474;-50
2022/09/07 10:14:31;;;;;;;8.20;4.97;;;33.40;52.20;;;;;;5056959;28;20493;-46
2022/09/07 10:17:00;;;;;;;9.20;5.30;;;33.30;52.60;;;;;;5055049;28;20471;-45
2022/09/07 10:19:33;;;;;;;6.77;6.10;;;33.40;52.60;;;;;;5054830;28;20447;-47
2022/09/07 10:22:02;;;;;;;6.80;5.63;;;33.00;53.00;;;;;;5054835;28;20444;-49
2022/09/07 10:24:35;;;;;;;5.50;4.87;;;32.60;53.50;;;;;;5055033;28;20546;-51
2022/09/07 10:27:20;;;;;;;6.07;5.47;;;32.00;54.80;;;;;;5054790;28;20471;-51
2022/09/07 10:29:46;;;;;;;7.07;6.13;;;31.30;55.80;;;;;;5055537;28;20458;-48
2022/09/07 10:32:26;;;;;;;7.17;6.30;;;30.90;56.90;;;;;;5054512;28;20471;-45
2022/09/07 10:35:05;;;;;;;7.57;5.80;;;30.30;58.00;;;;;;5054768;28;20428;-48
2022/09/07 10:37:41;;;;;;;8.10;6.37;;;29.70;59.00;;;;;;5055050;28;20770;-46
2022/09/07 10:40:20;;;;;;;9.13;5.20;;;29.10;60.60;;;;;;5055771;28;20524;-48
2022/09/07 10:42:56;;;;;;;8.13;5.47;;;28.40;62.90;;;;;;5054802;28;20436;-51
2022/09/07 10:45:36;;;;;;;9.73;6.87;;;28.00;64.50;;;;;;5054792;28;20443;-48
2022/09/07 10:48:13;;;;;;;6.43;5.30;;;27.70;65.80;;;;;;5054754;28;20575;-50
2022/09/07 10:50:47;;;;;;;12.30;6.03;;;27.40;67.00;;;;;;5054810;28;20427;-51
2022/09/07 10:53:32;;;;;;;7.43;5.53;;;27.10;67.50;;;;;;5055598;28;20447;-48
2022/09/07 10:56:05;;;;;;;6.37;5.73;;;27.00;68.40;;;;;;5054804;28;20790;-49
2022/09/07 10:58:42;;;;;;;6.70;6.10;;;26.80;69.50;;;;;;5054574;28;20439;-50
2022/09/07 11:01:17;;;;;;;5.70;5.10;;;26.70;70.50;;;;;;5054559;28;20810;-47
2022/09/07 11:03:57;;;;;;;8.07;5.97;;;26.60;70.50;;;;;;5054532;28;20450;-49
2022/09/07 11:06:30;;;;;;;8.40;6.27;;;26.60;71.00;;;;;;5054479;28;20528;-47
2022/09/07 11:09:27;;;;;;;8.73;7.00;;;26.50;72.50;;;;;;5054571;28;20439;-45
2022/09/07 11:12:02;;;;;;;11.03;7.90;;;26.40;72.90;;;;;;5054503;28;20796;-43
2022/09/07 11:14:31;;;;;;;6.70;6.00;;;26.40;74.30;;;;;;5054568;28;20427;-45
2022/09/07 11:17:01;;;;;;;8.87;7.20;;;26.30;75.30;;;;;;5056427;28;20506;-54
2022/09/07 11:19:33;;;;;;;11.27;9.40;;;26.40;75.60;;;;;;5055463;28;20438;-47
2022/09/07 11:22:07;;;;;;;8.40;6.53;;;26.40;75.70;;;;;;5054158;28;20950;-47
2022/09/07 11:24:41;;;;;;;7.50;6.20;;;26.40;76.20;;;;;;5054381;28;20868;-49
2022/09/07 11:27:12;;;;;;;6.40;5.80;;;26.40;76.40;;;;;;5054441;28;20463;-48
2022/09/07 11:29:46;;;;;;;6.47;5.87;;;26.50;76.90;;;;;;5054293;28;20423;-47
2022/09/07 11:32:21;;;;;;;7.83;5.90;;;26.60;77.10;;;;;;5054348;28;20467;-47
2022/09/07 11:34:52;;;;;;;6.03;5.20;;;26.80;77.10;;;;;;5054079;28;20434;-46
2022/09/07 11:37:23;;;;;;;11.90;8.20;;;27.00;76.80;;;;;;5054621;28;20936;-52
2022/09/07 11:39:57;;;;;;;9.80;7.43;;;27.10;77.60;;;;;;5057930;28;20439;-46
2022/09/07 11:42:30;;;;;;;8.10;6.37;;;27.20;77.90;;;;;;5058185;28;20846;-48
2022/09/07 11:45:02;;;;;;;6.70;5.80;;;27.20;77.00;;;;;;5059379;28;20443;-49
2022/09/07 11:47:35;;;;;;;6.40;5.53;;;27.40;76.90;;;;;;5059974;28;20562;-50
2022/09/07 11:50:03;;;;;;;6.60;5.70;;;27.50;77.10;;;;;;5058025;28;20502;-48
2022/09/07 11:52:37;;;;;;;9.63;6.43;;;27.60;78.20;;;;;;5058201;28;20800;-47
2022/09/07 11:55:10;;;;;;;6.37;5.77;;;27.50;78.80;;;;;;5057934;28;20426;-47
2022/09/07 11:57:49;;;;;;;9.60;6.30;;;27.40;78.50;;;;;;5057849;28;20771;-47
2022/09/07 12:00:20;;;;;;;9.27;7.00;;;27.30;78.90;;;;;;5057864;28;20466;-49
2022/09/07 12:03:13;;;;;;;7.53;6.83;;;27.30;79.90;;;;;;5058119;28;20517;-48
2022/09/07 12:06:12;;;;;;;7.00;6.20;;;27.20;80.80;;;;;;5057459;28;20550;-44
2022/09/07 12:08:55;;;;;;;10.80;6.93;;;27.10;82.00;;;;;;5047087;28;20453;-46
2022/09/07 12:11:34;;;;;;;7.60;6.83;;;27.00;82.80;;;;;;5057536;28;20442;-44
2022/09/07 12:14:25;;;;;;;6.60;6.00;;;27.00;83.80;;;;;;5058209;28;20449;-47
2022/09/07 12:17:15;;;;;;;6.80;6.20;;;27.10;83.10;;;;;;5057570;28;20550;-44
2022/09/07 12:19:42;;;;;;;7.37;6.63;;;27.20;83.20;;;;;;5057760;28;20448;-50
2022/09/07 12:22:21;;;;;;;7.50;6.80;;;27.40;83.10;;;;;;5057239;28;20486;-47
2022/09/07 12:24:51;;;;;;;11.73;7.17;;;27.70;84.30;;;;;;5057407;28;20724;-48
2022/09/07 12:27:40;;;;;;;8.60;7.80;;;27.90;82.60;;;;;;5057267;28;20533;-47
2022/09/07 12:30:56;;;;;;;7.73;6.83;;;27.80;82.10;;;;;;5057408;28;20446;-47
2022/09/07 12:33:25;;;;;;;7.40;6.70;;;27.70;82.20;;;;;;5057275;28;20477;-49
2022/09/07 12:35:53;;;;;;;8.23;7.33;;;27.60;82.80;;;;;;5057239;28;20455;-44
2022/09/07 12:39:08;;;;;;;7.90;7.10;;;27.30;83.50;;;;;;5057066;28;20900;-47
2022/09/07 12:41:48;;;;;;;8.43;7.73;;;27.20;85.40;;;;;;5056884;28;20467;-48
2022/09/07 12:44:20;;;;;;;15.93;7.03;;;26.90;85.80;;;;;;5056715;28;20431;-42
2022/09/07 12:46:50;;;;;;;7.70;6.97;;;26.80;86.90;;;;;;5056642;28;20471;-44
2022/09/07 12:49:53;;;;;;;6.80;5.50;;;26.70;87.70;;;;;;5056966;28;20438;-46
2022/09/07 12:52:36;;;;;;;10.00;6.60;;;26.70;88.20;;;;;;5057549;28;20803;-44
2022/09/07 12:55:15;;;;;;;9.37;7.47;;;26.70;88.50;;;;;;5057654;28;20442;-42
2022/09/07 12:57:50;;;;;;;7.63;6.73;;;26.60;88.90;;;;;;5057065;28;20558;-45
2022/09/07 13:00:22;;;;;;;10.30;7.30;;;26.60;89.80;;;;;;5057690;28;20432;-45
2022/09/07 13:03:15;;;;;;;6.97;6.27;;;26.50;90.00;;;;;;5057338;28;20943;-44
2022/09/07 13:05:56;;;;;;;7.30;6.53;;;26.40;90.10;;;;;;5056614;28;20470;-43
2022/09/07 13:08:52;;;;;;;8.80;6.33;;;26.20;90.60;;;;;;5056453;28;20944;-48